Time;durP1;ratioP1;P1;durP2;ratioP2;P2;SDS_P1;SDS_P2;PMS_P1;PMS_P2;Temp;Humidity;BMP_temperature;BMP_pressure;BME280_temperature;BME280_humidity;BME280_pressure;Samples;Min_cycle;Max_cycle;Signal;HPM_P1;HPM_P2
2022/09/12 00:01:05;;;;;;;;;;;;;;;;;;4970261;28;1072;-72
2022/09/12 00:03:32;;;;;;;;;;;;;;;;;;4969951;28;1316;-72
2022/09/12 00:05:59;;;;;;;;;;;;;;;;;;4952622;28;1354;-74
2022/09/12 00:08:25;;;;;;;;;;;;;;;;;;4970108;28;1915;-72
2022/09/12 00:10:52;;;;;;;;;;;;;;;;;;4970013;28;954;-72
2022/09/12 00:13:18;;;;;;;;;;;;;;;;;;4969757;28;1408;-72
2022/09/12 00:15:44;;;;;;;;;;;;;;;;;;4970126;28;1135;-72
2022/09/12 00:18:12;;;;;;;;;;;;;;;;;;4970137;28;989;-72
2022/09/12 00:20:41;;;;;;;;;;;;;;;;;;4970010;28;1120;-73
2022/09/12 00:23:08;;;;;;;;;;;;;;;;;;4969652;28;1332;-70
2022/09/12 00:25:34;;;;;;;;;;;;;;;;;;4952637;28;1821;-73
2022/09/12 00:28:01;;;;;;;;;;;;;;;;;;4969821;28;1915;-73
2022/09/12 00:30:27;;;;;;;;;;;;;;;;;;4969954;28;1055;-73
2022/09/12 00:32:53;;;;;;;;;;;;;;;;;;4951779;28;1329;-73
2022/09/12 00:35:19;;;;;;;;;;;;;;;;;;4952588;28;1127;-72
2022/09/12 00:37:46;;;;;;;;;;;;;;;;;;4969381;28;1098;-72
2022/09/12 00:40:13;;;;;;;;;;;;;;;;;;4969691;28;1068;-72
2022/09/12 00:42:39;;;;;;;;;;;;;;;;;;4969264;28;1304;-72
2022/09/12 00:45:06;;;;;;;;;;;;;;;;;;4969975;28;1075;-73
2022/09/12 00:47:32;;;;;;;;;;;;;;;;;;4952477;28;1721;-72
2022/09/12 00:49:59;;;;;;;;;;;;;;;;;;4969238;28;1915;-72
2022/09/12 00:52:27;;;;;;;;;;;;;;;;;;4952144;28;1329;-73
2022/09/12 00:54:54;;;;;;;;;;;;;;;;;;4969337;28;866;-72
2022/09/12 00:57:22;;;;;;;;;;;;;;;;;;4969541;28;957;-73
2022/09/12 00:59:49;;;;;;;;;;;;;;;;;;4969386;28;1012;-72
2022/09/12 01:02:15;;;;;;;;;;;;;;;;;;4969167;28;748;-73
2022/09/12 01:04:41;;;;;;;;;;;;;;;;;;4969438;28;1379;-73
2022/09/12 01:07:07;;;;;;;;;;;;;;;;;;4951835;28;1284;-72
2022/09/12 01:09:34;;;;;;;;;;;;;;;;;;4951878;28;1915;-72
2022/09/12 01:12:00;;;;;;;;;;;;;;;;;;4968995;28;866;-72
2022/09/12 01:14:28;;;;;;;;;;;;;;;;;;4969438;28;1309;-73
2022/09/12 01:16:54;;;;;;;;;;;;;;;;;;4970793;28;1072;-72
2022/09/12 01:19:25;;;;;;;;;;;;;;;;;;4972759;28;1072;-72
2022/09/12 01:21:54;;;;;;;;;;;;;;;;;;4954990;28;1207;-72
2022/09/12 01:24:32;;;;;;;;;;;;;;;;;;4972518;28;1396;-72
2022/09/12 01:27:16;;;;;;;;;;;;;;;;;;4972521;28;1044;-73
2022/09/12 01:30:03;;;;;;;;;;;;;;;;;;4992061;28;1918;-73
2022/09/12 01:32:32;;;;;;;;;;;;;;;;;;4972289;28;1317;-73
2022/09/12 01:34:58;;;;;;;;;;;;;;;;;;4972606;28;1051;-73
2022/09/12 01:37:26;;;;;;;;;;;;;;;;;;4972496;28;1068;-73
2022/09/12 01:39:55;;;;;;;;;;;;;;;;;;4955138;28;1148;-72
2022/09/12 01:42:22;;;;;;;;;;;;;;;;;;4954760;28;1404;-73
2022/09/12 01:44:50;;;;;;;;;;;;;;;;;;4954869;28;1237;-72
2022/09/12 01:47:17;;;;;;;;;;;;;;;;;;4972379;28;961;-72
2022/09/12 01:49:47;;;;;;;;;;;;;;;;;;4954438;28;1990;-73
2022/09/12 01:52:15;;;;;;;;;;;;;;;;;;4972167;28;1055;-72
2022/09/12 01:57:22;;;;;;;;;;;;;;;;;;5049840;28;1645;-75
2022/09/12 01:59:49;;;;;;;;;;;;;;;;;;4952951;29;1166;-75
2022/09/12 02:02:16;;;;;;;;;;;;;;;;;;4952272;29;1386;-75
2022/09/12 02:04:43;;;;;;;;;;;;;;;;;;4953019;29;827;-74
2022/09/12 02:07:13;;;;;;;;;;;;;;;;;;4952538;28;1413;-75
2022/09/12 02:09:41;;;;;;;;;;;;;;;;;;4952872;29;1982;-73
2022/09/12 02:12:07;;;;;;;;;;;;;;;;;;4952287;29;894;-75
2022/09/12 02:14:34;;;;;;;;;;;;;;;;;;4953049;28;1001;-75
2022/09/12 02:17:02;;;;;;;;;;;;;;;;;;4952588;28;1298;-75
2022/09/12 02:19:28;;;;;;;;;;;;;;;;;;5018965;28;1176;-75
2022/09/12 02:21:55;;;;;;;;;;;;;;;;;;4952435;29;647;-75
2022/09/12 02:24:23;;;;;;;;;;;;;;;;;;4952769;28;1060;-75
2022/09/12 02:26:52;;;;;;;;;;;;;;;;;;4952312;28;1330;-75
2022/09/12 02:29:18;;;;;;;;;;;;;;;;;;5018764;28;1894;-75
2022/09/12 02:31:45;;;;;;;;;;;;;;;;;;4952219;29;1092;-74
2022/09/12 02:34:14;;;;;;;;;;;;;;;;;;4952246;29;1017;-75
2022/09/12 02:36:43;;;;;;;;;;;;;;;;;;4952246;28;1527;-75
2022/09/12 02:39:09;;;;;;;;;;;;;;;;;;4952497;29;938;-76
2022/09/12 02:41:35;;;;;;;;;;;;;;;;;;4951975;29;1060;-75
2022/09/12 02:44:03;;;;;;;;;;;;;;;;;;4952462;29;954;-76
2022/09/12 02:46:42;;;;;;;;;;;;;;;;;;4952506;28;1376;-75
2022/09/12 02:49:08;;;;;;;;;;;;;;;;;;4952307;28;1911;-75
2022/09/12 02:51:35;;;;;;;;;;;;;;;;;;4952153;29;1064;-75
2022/09/12 02:54:01;;;;;;;;;;;;;;;;;;5018294;28;1302;-74
2022/09/12 02:56:28;;;;;;;;;;;;;;;;;;4952154;28;1404;-75
2022/09/12 02:58:55;;;;;;;;;;;;;;;;;;5018621;28;1089;-75
2022/09/12 03:01:26;;;;;;;;;;;;;;;;;;5017831;28;1144;-75
2022/09/12 03:03:56;;;;;;;;;;;;;;;;;;4952630;28;657;-75
2022/09/12 03:06:24;;;;;;;;;;;;;;;;;;5018196;28;1385;-75
2022/09/12 03:08:53;;;;;;;;;;;;;;;;;;4952176;28;1918;-74
2022/09/12 03:11:23;;;;;;;;;;;;;;;;;;4951356;29;1061;-76
2022/09/12 03:13:52;;;;;;;;;;;;;;;;;;4952131;29;672;-75
2022/09/12 03:16:20;;;;;;;;;;;;;;;;;;4951752;28;1319;-75
2022/09/12 03:18:50;;;;;;;;;;;;;;;;;;4951905;28;1065;-75
2022/09/12 03:21:18;;;;;;;;;;;;;;;;;;4951556;29;1115;-73
2022/09/12 03:23:45;;;;;;;;;;;;;;;;;;4951866;28;1132;-75
2022/09/12 03:26:12;;;;;;;;;;;;;;;;;;4951270;28;1298;-75
2022/09/12 03:28:38;;;;;;;;;;;;;;;;;;4951767;29;1915;-75
2022/09/12 03:31:11;;;;;;;;;;;;;;;;;;4951565;29;886;-75
2022/09/12 03:33:37;;;;;;;;;;;;;;;;;;4951643;29;776;-75
2022/09/12 03:36:05;;;;;;;;;;;;;;;;;;4951398;28;1427;-75
2022/09/12 03:38:31;;;;;;;;;;;;;;;;;;5050595;28;1200;-74
2022/09/12 03:40:58;;;;;;;;;;;;;;;;;;5050440;28;1154;-75
2022/09/12 03:43:24;;;;;;;;;;;;;;;;;;4951136;29;1107;-74
2022/09/12 03:45:50;;;;;;;;;;;;;;;;;;4951430;28;1309;-74
2022/09/12 03:48:17;;;;;;;;;;;;;;;;;;4951110;28;1119;-74
2022/09/12 03:50:43;;;;;;;;;;;;;;;;;;4951592;28;1923;-77
2022/09/12 03:53:10;;;;;;;;;;;;;;;;;;5050146;28;1170;-75
2022/09/12 03:55:38;;;;;;;;;;;;;;;;;;4950615;28;1559;-74
2022/09/12 03:58:04;;;;;;;;;;;;;;;;;;4951211;29;788;-75
2022/09/12 04:00:30;;;;;;;;;;;;;;;;;;4951041;28;1092;-75
2022/09/12 04:02:56;;;;;;;;;;;;;;;;;;4950828;29;1081;-75
2022/09/12 04:05:23;;;;;;;;;;;;;;;;;;4952154;28;1298;-73
2022/09/12 04:07:49;;;;;;;;;;;;;;;;;;4951131;29;1119;-74
2022/09/12 04:10:17;;;;;;;;;;;;;;;;;;4951175;29;1020;-75
2022/09/12 04:12:44;;;;;;;;;;;;;;;;;;4950886;28;941;-75
2022/09/12 04:15:11;;;;;;;;;;;;;;;;;;4951335;28;1309;-75
2022/09/12 04:17:37;;;;;;;;;;;;;;;;;;5049793;28;1617;-75
2022/09/12 04:20:03;;;;;;;;;;;;;;;;;;5049937;28;1934;-75
2022/09/12 04:22:30;;;;;;;;;;;;;;;;;;4950583;29;963;-75
2022/09/12 04:24:57;;;;;;;;;;;;;;;;;;4951032;28;1415;-75
2022/09/12 04:27:24;;;;;;;;;;;;;;;;;;5049903;28;1097;-73
2022/09/12 04:29:50;;;;;;;;;;;;;;;;;;4950730;29;1072;-75
2022/09/12 04:32:17;;;;;;;;;;;;;;;;;;5049158;28;1234;-74
2022/09/12 04:34:44;;;;;;;;;;;;;;;;;;4949078;28;1390;-76
2022/09/12 04:37:11;;;;;;;;;;;;;;;;;;4948578;28;1412;-77
2022/09/12 04:39:37;;;;;;;;;;;;;;;;;;4953534;28;1919;-76
2022/09/12 04:42:04;;;;;;;;;;;;;;;;;;4948227;29;1107;-77
2022/09/12 04:44:31;;;;;;;;;;;;;;;;;;4986787;28;1445;-76
2022/09/12 04:46:58;;;;;;;;;;;;;;;;;;5044608;28;1609;-76
2022/09/12 04:49:24;;;;;;;;;;;;;;;;;;4953441;28;1433;-77
2022/09/12 04:51:52;;;;;;;;;;;;;;;;;;4947707;28;1409;-76
2022/09/12 04:54:19;;;;;;;;;;;;;;;;;;4948021;29;1427;-76
2022/09/12 04:56:45;;;;;;;;;;;;;;;;;;4947746;28;1456;-76
2022/09/12 04:59:11;;;;;;;;;;;;;;;;;;4955296;28;2013;-77
2022/09/12 05:01:40;;;;;;;;;;;;;;;;;;4947888;28;819;-78
2022/09/12 05:04:06;;;;;;;;;;;;;;;;;;5027163;28;1429;-77
2022/09/12 05:06:33;;;;;;;;;;;;;;;;;;4946969;28;1420;-78
2022/09/12 05:09:00;;;;;;;;;;;;;;;;;;5028096;28;1268;-77
2022/09/12 05:11:27;;;;;;;;;;;;;;;;;;4947866;28;1067;-78
2022/09/12 05:13:53;;;;;;;;;;;;;;;;;;4948038;29;1080;-77
2022/09/12 05:16:20;;;;;;;;;;;;;;;;;;5015333;28;1375;-77
2022/09/12 05:18:49;;;;;;;;;;;;;;;;;;5022115;28;1495;-77
2022/09/12 05:21:15;;;;;;;;;;;;;;;;;;4947645;29;1988;-76
2022/09/12 05:23:42;;;;;;;;;;;;;;;;;;4947848;28;1130;-78
2022/09/12 05:26:08;;;;;;;;;;;;;;;;;;5013310;28;1571;-77
2022/09/12 05:28:36;;;;;;;;;;;;;;;;;;4953939;28;1400;-78
2022/09/12 05:31:02;;;;;;;;;;;;;;;;;;5036677;28;1337;-77
2022/09/12 05:33:29;;;;;;;;;;;;;;;;;;5006159;28;1392;-78
2022/09/12 05:35:56;;;;;;;;;;;;;;;;;;4949754;28;1633;-78
2022/09/12 05:38:23;;;;;;;;;;;;;;;;;;4946963;28;1502;-78
2022/09/12 05:40:49;;;;;;;;;;;;;;;;;;5044370;28;1983;-78
2022/09/12 05:43:16;;;;;;;;;;;;;;;;;;4948669;28;1429;-77
2022/09/12 05:45:42;;;;;;;;;;;;;;;;;;4949964;28;1355;-78
2022/09/12 05:48:08;;;;;;;;;;;;;;;;;;4948618;28;1386;-77
2022/09/12 05:50:34;;;;;;;;;;;;;;;;;;4946725;28;1429;-78
2022/09/12 05:53:02;;;;;;;;;;;;;;;;;;4948100;28;1419;-78
2022/09/12 05:55:30;;;;;;;;;;;;;;;;;;4949325;28;1564;-79
2022/09/12 05:57:56;;;;;;;;;;;;;;;;;;5049084;28;1213;-76
2022/09/12 06:00:22;;;;;;;;;;;;;;;;;;4949232;28;1981;-75
2022/09/12 06:02:51;;;;;;;;;;;;;;;;;;4957049;28;1081;-75
2022/09/12 06:05:17;;;;;;;;;;;;;;;;;;5052255;28;1415;-75
2022/09/12 06:07:44;;;;;;;;;;;;;;;;;;4952992;29;1127;-76
2022/09/12 06:10:12;;;;;;;;;;;;;;;;;;4955671;28;1497;-75
2022/09/12 06:12:38;;;;;;;;;;;;;;;;;;4948955;28;1378;-75
2022/09/12 06:15:06;;;;;;;;;;;;;;;;;;5032563;28;1441;-76
2022/09/12 06:17:33;;;;;;;;;;;;;;;;;;4952547;29;1234;-76
2022/09/12 06:19:59;;;;;;;;;;;;;;;;;;4951965;28;1918;-75
2022/09/12 06:22:25;;;;;;;;;;;;;;;;;;4954738;28;1547;-74
2022/09/12 06:24:51;;;;;;;;;;;;;;;;;;4956849;28;1673;-73
2022/09/12 06:27:19;;;;;;;;;;;;;;;;;;4946710;28;1534;-73
2022/09/12 06:29:45;;;;;;;;;;;;;;;;;;4946467;28;1530;-73
2022/09/12 06:32:11;;;;;;;;;;;;;;;;;;4956246;28;1346;-74
2022/09/12 06:34:38;;;;;;;;;;;;;;;;;;4954620;28;1767;-73
2022/09/12 06:37:04;;;;;;;;;;;;;;;;;;4950929;28;1577;-74
2022/09/12 06:39:31;;;;;;;;;;;;;;;;;;4951565;29;1218;-75
2022/09/12 06:41:57;;;;;;;;;;;;;;;;;;4951050;28;1977;-76
2022/09/12 06:44:34;;;;;;;;;;;;;;;;;;5032983;28;1316;-76
2022/09/12 06:47:00;;;;;;;;;;;;;;;;;;4951667;28;1642;-77
2022/09/12 06:49:26;;;;;;;;;;;;;;;;;;4952321;28;1692;-77
2022/09/12 06:51:53;;;;;;;;;;;;;;;;;;5017377;28;1220;-77
2022/09/12 06:54:19;;;;;;;;;;;;;;;;;;4952124;28;1776;-76
2022/09/12 06:56:45;;;;;;;;;;;;;;;;;;4948000;28;1919;-77
2022/09/12 06:59:12;;;;;;;;;;;;;;;;;;5051143;28;1464;-76
2022/09/12 07:01:40;;;;;;;;;;;;;;;;;;5048414;28;1983;-77
2022/09/12 07:04:06;;;;;;;;;;;;;;;;;;4950809;28;1166;-78
2022/09/12 07:06:35;;;;;;;;;;;;;;;;;;5050366;28;1320;-78
2022/09/12 07:09:03;;;;;;;;;;;;;;;;;;4950695;28;1164;-78
2022/09/12 07:11:30;;;;;;;;;;;;;;;;;;4959040;28;1902;-78
2022/09/12 07:13:57;;;;;;;;;;;;;;;;;;4962808;28;1494;-78
2022/09/12 07:16:24;;;;;;;;;;;;;;;;;;5049508;28;1841;-77
2022/09/12 07:18:54;;;;;;;;;;;;;;;;;;4951198;29;1238;-77
2022/09/12 07:21:20;;;;;;;;;;;;;;;;;;4950720;28;1915;-77
2022/09/12 07:23:46;;;;;;;;;;;;;;;;;;5050630;28;1229;-76
2022/09/12 07:26:13;;;;;;;;;;;;;;;;;;4951160;28;1385;-78
2022/09/12 07:28:39;;;;;;;;;;;;;;;;;;4954102;28;1871;-75
2022/09/12 07:31:06;;;;;;;;;;;;;;;;;;5043838;28;1064;-74
2022/09/12 07:33:33;;;;;;;;;;;;;;;;;;5052525;28;768;-76
2022/09/12 07:36:02;;;;;;;;;;;;;;;;;;5031245;28;1773;-76
2022/09/12 07:38:31;;;;;;;;;;;;;;;;;;4947121;29;1097;-76
2022/09/12 07:40:57;;;;;;;;;;;;;;;;;;4949006;28;1986;-75
2022/09/12 07:43:24;;;;;;;;;;;;;;;;;;4949876;29;1167;-75
2022/09/12 07:45:54;;;;;;;;;;;;;;;;;;4950531;28;1391;-76
2022/09/12 07:48:20;;;;;;;;;;;;;;;;;;4949693;28;1834;-76
2022/09/12 07:50:46;;;;;;;;;;;;;;;;;;5015430;28;1709;-78
2022/09/12 07:53:14;;;;;;;;;;;;;;;;;;4948898;29;1342;-77
2022/09/12 07:55:40;;;;;;;;;;;;;;;;;;4972032;28;1479;-76
2022/09/12 07:58:06;;;;;;;;;;;;;;;;;;4950855;28;1799;-75
2022/09/12 08:00:35;;;;;;;;;;;;;;;;;;4949366;29;1927;-76
2022/09/12 08:03:01;;;;;;;;;;;;;;;;;;4975660;22;3616;-75
2022/09/12 08:05:28;;;;;;;;;;;;;;;;;;4992101;28;1086;-75
2022/09/12 08:07:55;;;;;;;;;;;;;;;;;;5062412;28;1818;-75
2022/09/12 08:10:22;;;;;;;;;;;;;;;;;;4987883;28;1092;-76
2022/09/12 08:12:49;;;;;;;;;;;;;;;;;;4978620;28;1689;-76
2022/09/12 08:15:16;;;;;;;;;;;;;;;;;;4960381;28;1155;-75
2022/09/12 08:17:42;;;;;;;;;;;;;;;;;;4969136;28;1107;-74
2022/09/12 08:20:09;;;;;;;;;;;;;;;;;;4968451;28;814;-74
2022/09/12 08:22:35;;;;;;;;;;;;;;;;;;4959162;28;1987;-76
2022/09/12 08:25:01;;;;;;;;;;;;;;;;;;4966393;28;1632;-76
2022/09/12 08:27:28;;;;;;;;;;;;;;;;;;4956527;28;1407;-76
2022/09/12 08:29:55;;;;;;;;;;;;;;;;;;4935766;28;1753;-76
2022/09/12 08:32:21;;;;;;;;;;;;;;;;;;4996543;28;1932;-76
2022/09/12 08:34:47;;;;;;;;;;;;;;;;;;4945482;28;1507;-76
2022/09/12 08:37:14;;;;;;;;;;;;;;;;;;4960765;28;1151;-77
2022/09/12 08:39:40;;;;;;;;;;;;;;;;;;4968298;28;1068;-76
2022/09/12 08:42:06;;;;;;;;;;;;;;;;;;4967663;28;1915;-75
2022/09/12 08:44:41;;;;;;;;;;;;;;;;;;4950706;28;1836;-76
2022/09/12 08:47:11;;;;;;;;;;;;;;;;;;4959908;28;1170;-76
2022/09/12 08:49:38;;;;;;;;;;;;;;;;;;4968091;28;1767;-75
2022/09/12 08:52:05;;;;;;;;;;;;;;;;;;4942272;28;1425;-75
2022/09/12 08:54:31;;;;;;;;;;;;;;;;;;4965590;28;1748;-75
2022/09/12 08:57:00;;;;;;;;;;;;;;;;;;4958190;28;1473;-75
2022/09/12 08:59:26;;;;;;;;;;;;;;;;;;4960142;28;1670;-75
2022/09/12 09:01:54;;;;;;;;;;;;;;;;;;4963000;28;1899;-74
2022/09/12 09:04:32;;;;;;;;;;;;;;;;;;4942038;28;1598;-76
2022/09/12 09:07:07;;;;;;;;;;;;;;;;;;4968089;28;1535;-75
2022/09/12 09:09:38;;;;;;;;;;;;;;;;;;4968088;28;938;-75
2022/09/12 09:12:06;;;;;;;;;;;;;;;;;;4967253;28;1423;-75
2022/09/12 09:14:47;;;;;;;;;;;;;;;;;;4961615;28;1842;-75
2022/09/12 09:17:17;;;;;;;;;;;;;;;;;;4994102;28;1554;-75
2022/09/12 09:19:45;;;;;;;;;;;;;;;;;;4967915;28;877;-75
2022/09/12 09:22:12;;;;;;;;;;;;;;;;;;4967438;28;1918;-74
2022/09/12 09:24:39;;;;;;;;;;;;;;;;;;4968070;28;1252;-74
2022/09/12 09:27:07;;;;;;;;;;;;;;;;;;4967775;28;1111;-74
2022/09/12 09:29:33;;;;;;;;;;;;;;;;;;4966801;28;1815;-74
2022/09/12 09:32:00;;;;;;;;;;;;;;;;;;4957658;28;1513;-75
2022/09/12 09:34:30;;;;;;;;;;;;;;;;;;4956922;28;1765;-75
2022/09/12 09:36:57;;;;;;;;;;;;;;;;;;4960041;28;1598;-75
2022/09/12 09:39:29;;;;;;;;;;;;;;;;;;4959920;28;1769;-75
2022/09/12 09:41:59;;;;;;;;;;;;;;;;;;4960673;28;1914;-73
2022/09/12 09:44:27;;;;;;;;;;;;;;;;;;4963306;28;1278;-74
2022/09/12 09:46:53;;;;;;;;;;;;;;;;;;4970814;28;1689;-74
2022/09/12 09:49:20;;;;;;;;;;;;;;;;;;4970693;28;1115;-74
2022/09/12 09:51:47;;;;;;;;;;;;;;;;;;4970867;28;1150;-73
2022/09/12 09:54:16;;;;;;;;;;;;;;;;;;4958839;28;1834;-75
2022/09/12 09:56:42;;;;;;;;;;;;;;;;;;4948830;28;1420;-75
2022/09/12 09:59:10;;;;;;;;;;;;;;;;;;4969995;28;1768;-74
2022/09/12 10:01:37;;;;;;;;;;;;;;;;;;4963829;28;1980;-74
2022/09/12 10:04:03;;;;;;;;;;;;;;;;;;4962356;28;1593;-73
2022/09/12 10:06:31;;;;;;;;;;;;;;;;;;4946203;28;1566;-73
2022/09/12 10:09:06;;;;;;;;;;;;;;;;;;4968088;28;1439;-74
2022/09/12 10:11:32;;;;;;;;;;;;;;;;;;4960060;28;1776;-73
2022/09/12 10:14:00;;;;;;;;;;;;;;;;;;4961368;28;1601;-74
2022/09/12 10:16:27;;;;;;;;;;;;;;;;;;4963671;28;1412;-73
2022/09/12 10:18:54;;;;;;;;;;;;;;;;;;4970601;28;1166;-74
2022/09/12 10:21:22;;;;;;;;;;;;;;;;;;4969986;28;1919;-73
2022/09/12 10:23:50;;;;;;;;;;;;;;;;;;4970484;28;1379;-74
2022/09/12 10:26:18;;;;;;;;;;;;;;;;;;4957778;28;1196;-73
2022/09/12 10:28:45;;;;;;;;;;;;;;;;;;4969893;28;1256;-74
2022/09/12 10:31:13;;;;;;;;;;;;;;;;;;4969245;28;1290;-73
2022/09/12 10:33:41;;;;;;;;;;;;;;;;;;4967986;28;1467;-73
2022/09/12 10:36:07;;;;;;;;;;;;;;;;;;4970125;28;1260;-74
2022/09/12 10:38:33;;;;;;;;;;;;;;;;;;4970375;28;1191;-74
2022/09/12 10:41:00;;;;;;;;;;;;;;;;;;4969956;28;1104;-73
2022/09/12 10:43:29;;;;;;;;;;;;;;;;;;4968537;28;1410;-74
2022/09/12 10:45:59;;;;;;;;;;;;;;;;;;4984977;28;1180;-74
2022/09/12 10:48:27;;;;;;;;;;;;;;;;;;4970568;28;1063;-75
2022/09/12 10:50:53;;;;;;;;;;;;;;;;;;4969754;28;1146;-74
2022/09/12 10:53:20;;;;;;;;;;;;;;;;;;4969440;28;1915;-74
2022/09/12 10:55:55;;;;;;;;;;;;;;;;;;4969749;28;960;-74
2022/09/12 10:58:26;;;;;;;;;;;;;;;;;;4993070;28;1044;-75
2022/09/12 11:00:55;;;;;;;;;;;;;;;;;;4958968;28;1077;-75
2022/09/12 11:03:23;;;;;;;;;;;;;;;;;;4969219;28;1321;-75
2022/09/12 11:05:53;;;;;;;;;;;;;;;;;;4969878;28;882;-75
2022/09/12 11:08:26;;;;;;;;;;;;;;;;;;4969829;28;992;-76
2022/09/12 11:10:55;;;;;;;;;;;;;;;;;;4969730;28;1075;-74
2022/09/12 11:13:25;;;;;;;;;;;;;;;;;;4972302;28;1910;-76
2022/09/12 11:15:59;;;;;;;;;;;;;;;;;;4975416;28;1081;-75
2022/09/12 11:18:29;;;;;;;;;;;;;;;;;;4972382;28;1154;-75
2022/09/12 11:21:02;;;;;;;;;;;;;;;;;;4969497;28;1101;-76
2022/09/12 11:23:47;;;;;;;;;;;;;;;;;;4970830;28;1310;-75
2022/09/12 11:26:17;;;;;;;;;;;;;;;;;;4969588;28;680;-76
2022/09/12 11:28:47;;;;;;;;;;;;;;;;;;4969740;28;926;-76
2022/09/12 11:31:20;;;;;;;;;;;;;;;;;;4969254;28;1978;-76
2022/09/12 11:33:46;;;;;;;;;;;;;;;;;;4969661;28;1309;-76
2022/09/12 11:36:16;;;;;;;;;;;;;;;;;;4969490;28;1072;-76
2022/09/12 11:38:47;;;;;;;;;;;;;;;;;;4968844;28;1059;-77
2022/09/12 11:41:15;;;;;;;;;;;;;;;;;;4967210;28;1514;-75
2022/09/12 11:43:41;;;;;;;;;;;;;;;;;;4961096;28;1471;-76
2022/09/12 11:46:10;;;;;;;;;;;;;;;;;;4961709;28;1230;-76
2022/09/12 11:48:40;;;;;;;;;;;;;;;;;;4963295;28;1448;-75
2022/09/12 11:51:07;;;;;;;;;;;;;;;;;;4965002;28;1662;-74
2022/09/12 11:53:34;;;;;;;;;;;;;;;;;;4949918;28;1983;-75
2022/09/12 11:56:02;;;;;;;;;;;;;;;;;;4950010;29;890;-75
2022/09/12 11:58:29;;;;;;;;;;;;;;;;;;4959898;28;1627;-75
2022/09/12 12:00:56;;;;;;;;;;;;;;;;;;4959730;28;1540;-75
2022/09/12 12:03:23;;;;;;;;;;;;;;;;;;4963839;28;1419;-74
2022/09/12 12:05:53;;;;;;;;;;;;;;;;;;4982385;28;1134;-75
2022/09/12 12:08:19;;;;;;;;;;;;;;;;;;5050180;28;1258;-74
2022/09/12 12:10:48;;;;;;;;;;;;;;;;;;4950302;29;1005;-74
2022/09/12 12:13:16;;;;;;;;;;;;;;;;;;4961457;28;1918;-74
2022/09/12 12:15:44;;;;;;;;;;;;;;;;;;4943778;28;1222;-74
2022/09/12 12:18:15;;;;;;;;;;;;;;;;;;4963369;28;1422;-74
2022/09/12 12:20:41;;;;;;;;;;;;;;;;;;4964993;28;1149;-74
2022/09/12 12:23:20;;;;;;;;;;;;;;;;;;4968125;28;1308;-74
2022/09/12 12:25:53;;;;;;;;;;;;;;;;;;4969067;28;1120;-74
2022/09/12 12:28:38;;;;;;;;;;;;;;;;;;4967935;28;1471;-74
2022/09/12 12:31:05;;;;;;;;;;;;;;;;;;4964105;28;1449;-74
2022/09/12 12:33:50;;;;;;;;;;;;;;;;;;4961556;28;1895;-75
2022/09/12 12:36:28;;;;;;;;;;;;;;;;;;4968165;28;1100;-74
2022/09/12 12:38:56;;;;;;;;;;;;;;;;;;4967777;28;1452;-74
2022/09/12 12:41:41;;;;;;;;;;;;;;;;;;4962421;28;1446;-73
2022/09/12 12:44:22;;;;;;;;;;;;;;;;;;4962952;28;1521;-73
2022/09/12 12:47:03;;;;;;;;;;;;;;;;;;4957798;28;1538;-74
2022/09/12 12:49:29;;;;;;;;;;;;;;;;;;4955825;28;1501;-75
2022/09/12 12:51:56;;;;;;;;;;;;;;;;;;4964582;28;1911;-74
2022/09/12 12:54:40;;;;;;;;;;;;;;;;;;4968795;28;997;-74
2022/09/12 12:57:17;;;;;;;;;;;;;;;;;;4973266;28;1508;-74
2022/09/12 12:59:45;;;;;;;;;;;;;;;;;;4965943;28;1179;-74
2022/09/12 13:02:15;;;;;;;;;;;;;;;;;;4965332;28;1435;-73
2022/09/12 13:04:41;;;;;;;;;;;;;;;;;;4963772;28;1701;-74
2022/09/12 13:07:07;;;;;;;;;;;;;;;;;;4959871;28;1401;-75
2022/09/12 13:09:34;;;;;;;;;;;;;;;;;;4964144;28;1477;-75
2022/09/12 13:12:03;;;;;;;;;;;;;;;;;;4938089;28;1970;-74
2022/09/12 13:14:37;;;;;;;;;;;;;;;;;;4972041;28;1149;-75
2022/09/12 13:17:04;;;;;;;;;;;;;;;;;;4970808;28;1507;-74
2022/09/12 13:19:31;;;;;;;;;;;;;;;;;;5017628;28;1123;-75
2022/09/12 13:21:59;;;;;;;;;;;;;;;;;;4952161;28;1303;-75
2022/09/12 13:24:25;;;;;;;;;;;;;;;;;;4952214;29;1515;-75
2022/09/12 13:26:52;;;;;;;;;;;;;;;;;;4958726;28;1366;-75
2022/09/12 13:29:19;;;;;;;;;;;;;;;;;;4967554;28;1396;-75
2022/09/12 13:31:47;;;;;;;;;;;;;;;;;;4958432;28;1187;-75
2022/09/12 13:34:13;;;;;;;;;;;;;;;;;;4950310;28;2057;-75
2022/09/12 13:36:42;;;;;;;;;;;;;;;;;;4971588;28;1119;-75
2022/09/12 13:39:11;;;;;;;;;;;;;;;;;;4971574;28;1235;-75
2022/09/12 13:41:40;;;;;;;;;;;;;;;;;;4963231;28;1400;-75
2022/09/12 13:44:08;;;;;;;;;;;;;;;;;;4962429;28;1409;-75
2022/09/12 13:46:34;;;;;;;;;;;;;;;;;;4972057;28;1429;-74
2022/09/12 13:49:08;;;;;;;;;;;;;;;;;;4970571;28;1528;-75
2022/09/12 13:51:34;;;;;;;;;;;;;;;;;;4970183;28;1372;-74
2022/09/12 13:54:02;;;;;;;;;;;;;;;;;;4970983;28;2002;-74
2022/09/12 13:56:28;;;;;;;;;;;;;;;;;;4970833;28;1469;-74
2022/09/12 13:58:55;;;;;;;;;;;;;;;;;;4962907;28;1618;-75
2022/09/12 14:01:22;;;;;;;;;;;;;;;;;;4959911;28;1562;-74
2022/09/12 14:06:36;;;;;;;;;;;;;;;;;;4962611;28;1590;-73
2022/09/12 14:09:03;;;;;;;;;;;;;;;;;;4964303;28;1230;-74
2022/09/12 14:11:29;;;;;;;;;;;;;;;;;;4961333;28;1412;-74
2022/09/12 14:13:56;;;;;;;;;;;;;;;;;;4980548;22;2614;-71
2022/09/12 14:16:22;;;;;;;;;;;;;;;;;;4970182;28;1150;-73
2022/09/12 14:18:50;;;;;;;;;;;;;;;;;;4970462;28;1111;-73
2022/09/12 14:21:32;;;;;;;;;;;;;;;;;;4969741;28;1048;-72
2022/09/12 14:24:04;;;;;;;;;;;;;;;;;;4960764;28;1409;-73
2022/09/12 14:26:32;;;;;;;;;;;;;;;;;;4969551;28;1381;-72
2022/09/12 14:28:58;;;;;;;;;;;;;;;;;;4961403;28;1661;-72
2022/09/12 14:31:25;;;;;;;;;;;;;;;;;;5011511;28;1410;-72
2022/09/12 14:33:52;;;;;;;;;;;;;;;;;;4955550;28;1975;-72
2022/09/12 14:36:20;;;;;;;;;;;;;;;;;;4961261;28;1457;-72
2022/09/12 14:38:46;;;;;;;;;;;;;;;;;;4953834;28;1451;-72
2022/09/12 14:41:14;;;;;;;;;;;;;;;;;;4961601;28;1225;-72
2022/09/12 14:43:41;;;;;;;;;;;;;;;;;;4969264;28;1436;-73
2022/09/12 14:46:08;;;;;;;;;;;;;;;;;;4979658;28;1426;-71
2022/09/12 14:48:35;;;;;;;;;;;;;;;;;;5018208;28;1273;-71
2022/09/12 14:51:01;;;;;;;;;;;;;;;;;;4950919;29;1028;-71
2022/09/12 14:53:31;;;;;;;;;;;;;;;;;;4966300;28;1977;-72
2022/09/12 14:55:58;;;;;;;;;;;;;;;;;;4968233;28;1426;-71
2022/09/12 14:58:26;;;;;;;;;;;;;;;;;;4962106;28;1191;-70
2022/09/12 15:00:57;;;;;;;;;;;;;;;;;;4964374;28;1434;-71
2022/09/12 15:03:24;;;;;;;;;;;;;;;;;;4961874;28;1325;-72
2022/09/12 15:05:50;;;;;;;;;;;;;;;;;;4944360;28;1427;-71
2022/09/12 15:08:17;;;;;;;;;;;;;;;;;;4960090;28;1421;-70
2022/09/12 15:10:43;;;;;;;;;;;;;;;;;;4945229;29;1439;-71
2022/09/12 15:13:12;;;;;;;;;;;;;;;;;;4962739;28;1914;-72
2022/09/12 15:15:40;;;;;;;;;;;;;;;;;;4944492;28;1387;-72
2022/09/12 15:18:07;;;;;;;;;;;;;;;;;;4960194;28;1594;-72
2022/09/12 15:20:33;;;;;;;;;;;;;;;;;;4963509;28;1226;-72
2022/09/12 15:22:59;;;;;;;;;;;;;;;;;;4969212;28;1324;-73
2022/09/12 15:25:25;;;;;;;;;;;;;;;;;;4969372;28;1654;-72
2022/09/12 15:27:51;;;;;;;;;;;;;;;;;;4960732;28;1698;-72
2022/09/12 15:30:18;;;;;;;;;;;;;;;;;;4969227;28;1167;-70
2022/09/12 15:32:45;;;;;;;;;;;;;;;;;;4969210;28;1907;-70
2022/09/12 15:35:12;;;;;;;;;;;;;;;;;;4967621;28;1415;-72
2022/09/12 15:37:39;;;;;;;;;;;;;;;;;;4968374;28;1442;-70
2022/09/12 15:40:05;;;;;;;;;;;;;;;;;;4961209;28;1120;-71
2022/09/12 15:42:32;;;;;;;;;;;;;;;;;;4966307;28;1830;-71
2022/09/12 15:44:58;;;;;;;;;;;;;;;;;;4966921;28;1690;-71
2022/09/12 15:47:25;;;;;;;;;;;;;;;;;;4974816;28;1500;-70
2022/09/12 15:49:52;;;;;;;;;;;;;;;;;;4961678;28;1591;-71
2022/09/12 15:52:18;;;;;;;;;;;;;;;;;;4960021;28;1338;-70
2022/09/12 15:54:45;;;;;;;;;;;;;;;;;;4973554;28;1915;-70
2022/09/12 15:57:11;;;;;;;;;;;;;;;;;;4965165;28;1183;-70
2022/09/12 15:59:37;;;;;;;;;;;;;;;;;;4963432;28;1498;-71
2022/09/12 16:02:03;;;;;;;;;;;;;;;;;;4961630;28;1426;-73
2022/09/12 16:04:30;;;;;;;;;;;;;;;;;;4970175;28;1328;-72
2022/09/12 16:06:58;;;;;;;;;;;;;;;;;;4953001;28;1222;-72
2022/09/12 16:09:24;;;;;;;;;;;;;;;;;;4970251;28;961;-73
2022/09/12 16:11:51;;;;;;;;;;;;;;;;;;4969915;28;1124;-74
2022/09/12 16:14:17;;;;;;;;;;;;;;;;;;4969828;28;1919;-73
2022/09/12 16:16:44;;;;;;;;;;;;;;;;;;4970183;28;1056;-73
2022/09/12 16:19:10;;;;;;;;;;;;;;;;;;4970042;28;863;-73
2022/09/12 16:21:37;;;;;;;;;;;;;;;;;;4969774;28;1072;-74
2022/09/12 16:24:04;;;;;;;;;;;;;;;;;;4968631;28;1322;-72
2022/09/12 16:26:31;;;;;;;;;;;;;;;;;;4969756;28;978;-73
2022/09/12 16:28:57;;;;;;;;;;;;;;;;;;4970182;28;1115;-73
2022/09/12 16:31:23;;;;;;;;;;;;;;;;;;4964253;28;1510;-72
2022/09/12 16:33:49;;;;;;;;;;;;;;;;;;4961471;28;1923;-74
2022/09/12 16:36:17;;;;;;;;;;;;;;;;;;4954271;28;1331;-74
2022/09/12 16:38:43;;;;;;;;;;;;;;;;;;4963510;28;1227;-74
2022/09/12 16:41:11;;;;;;;;;;;;;;;;;;4966743;28;1163;-73
2022/09/12 16:43:37;;;;;;;;;;;;;;;;;;4958301;28;1352;-74
2022/09/12 16:46:04;;;;;;;;;;;;;;;;;;4967355;28;1103;-74
2022/09/12 16:48:30;;;;;;;;;;;;;;;;;;4962674;28;1456;-73
2022/09/12 16:50:57;;;;;;;;;;;;;;;;;;4964860;28;1373;-73
2022/09/12 16:53:23;;;;;;;;;;;;;;;;;;4965241;28;1918;-73
2022/09/12 16:55:49;;;;;;;;;;;;;;;;;;4940664;28;1208;-73
2022/09/12 16:58:16;;;;;;;;;;;;;;;;;;4967695;28;1186;-72
2022/09/12 17:00:43;;;;;;;;;;;;;;;;;;4966428;28;1430;-74
2022/09/12 17:03:09;;;;;;;;;;;;;;;;;;4956013;28;1491;-73
2022/09/12 17:05:36;;;;;;;;;;;;;;;;;;4961043;28;1143;-72
2022/09/12 17:08:02;;;;;;;;;;;;;;;;;;4965164;28;1425;-74
2022/09/12 17:10:29;;;;;;;;;;;;;;;;;;4954087;28;1451;-73
2022/09/12 17:12:56;;;;;;;;;;;;;;;;;;4963383;28;1350;-73